Tug Hawk — WCS9768 — position and weather

sailwx.info

Track history (hours):
 
Tides and Currents Weather Stations Pressure Air Temp Water Temp Dewpoint Dewpoint Depression Visibility Wind Speed Wind Dir Waves Ship Positions

Tug Hawk

Owner: Seabulk Towing, Inc., FORT LAUDERDALE, FL. More information available from US FCC via Universal Licensing System and Coast Guard Vessel Documentation Center.

Last reported at 2017-Nov-18 13:51 UTC. Time now 2017-Nov-22 18:39 UTC.
Position N 25°24' W 080°05'.

Length 32 m; draft 5 m.

Type: Tug. MMSI: 366943250.

Date/timePositionNaut miles runAvg speedWind from/ knotsBaromVisibWave heightAir tempDewpointWater temp
2017-Nov-18 13:51N 25°24' W 080°05'3 9.1
2017-Nov-18 13:30N 25°27' W 080°05'4 8.9
2017-Nov-18 13:00N 25°31' W 080°04'4 8.3
2017-Nov-18 12:30N 25°35' W 080°04'4 9.0
2017-Nov-18 12:01N 25°40' W 080°04'5 9.1
2017-Nov-18 11:31N 25°44' W 080°04'5 9.1
2017-Nov-18 11:01N 25°49' W 080°04'4 8.7
2017-Nov-18 10:31N 25°53' W 080°04'4 8.9
2017-Nov-18 10:00N 25°58' W 080°04'5 9.1
2017-Nov-18 09:31N 26°02' W 080°04'4 7.6
2017-Nov-18 09:01N 26°06' W 080°06'1 1.8
2017-Nov-18 08:31N 26°05' W 080°07'0 0.0
2017-Nov-18 08:01N 26°05' W 080°07'0 0.0
2017-Nov-18 07:31N 26°05' W 080°07'0 0.0
2017-Nov-18 07:01N 26°05' W 080°07'0 0.0
2017-Nov-18 06:31N 26°05' W 080°07'0 0.0
2017-Nov-18 06:01N 26°05' W 080°07'0 0.0
2017-Nov-18 05:31N 26°05' W 080°07'0 0.0
2017-Nov-18 05:00N 26°05' W 080°07'0 0.0
2017-Nov-18 04:31N 26°05' W 080°07'0 0.0
2017-Nov-18 04:00N 26°05' W 080°07'0 0.0
2017-Nov-18 03:30N 26°05' W 080°07'0 0.0
2017-Nov-18 03:00N 26°05' W 080°07'0 0.0
2017-Nov-18 02:30N 26°05' W 080°07'0 0.0
2017-Nov-18 02:00N 26°05' W 080°07'0 0.0
2017-Nov-18 01:30N 26°05' W 080°07'0 0.0
2017-Nov-18 01:00N 26°05' W 080°07'0 0.1
2017-Nov-18 00:30N 26°05' W 080°07'0 0.0
2017-Nov-18 00:00N 26°05' W 080°07'0 0.0
2017-Nov-17 23:30N 26°05' W 080°07'0 0.0
2017-Nov-17 23:00N 26°05' W 080°07'0 0.0
2017-Nov-17 22:30N 26°05' W 080°07'0 0.0
2017-Nov-17 22:01N 26°05' W 080°07'0 0.0
2017-Nov-17 21:31N 26°05' W 080°07'0 0.0
2017-Nov-17 21:01N 26°05' W 080°07'0 0.0
2017-Nov-17 20:31N 26°05' W 080°07'0 0.0
2017-Nov-17 20:01N 26°05' W 080°07'0 0.0
2017-Nov-17 19:31N 26°05' W 080°07'0 0.0
2017-Nov-17 19:00N 26°05' W 080°07'0 0.0
2017-Nov-17 18:30N 26°05' W 080°07'0 0.0
2017-Nov-17 18:01N 26°05' W 080°07'0 0.0
2017-Nov-17 17:30N 26°05' W 080°07'0 0.0
2017-Nov-17 17:01N 26°05' W 080°07'0 0.0
2017-Nov-17 16:30N 26°05' W 080°07'0 0.0
2017-Nov-17 16:01N 26°05' W 080°07'0 0.0
2017-Nov-17 15:30N 26°05' W 080°07'0 0.0
2017-Nov-17 15:00N 26°05' W 080°07'0 0.0
2017-Nov-17 14:30N 26°05' W 080°07'0 0.0
2017-Nov-17 14:00N 26°05' W 080°07'0 0.0
2017-Nov-17 13:30N 26°05' W 080°07'0 0.0
2017-Nov-17 13:00N 26°05' W 080°07'0 0.0
2017-Nov-17 12:30N 26°05' W 080°07'0 0.0
2017-Nov-17 12:00N 26°05' W 080°07'0 0.0
2017-Nov-17 11:30N 26°05' W 080°07'0 0.0
2017-Nov-17 11:00N 26°05' W 080°07'0 0.0
2017-Nov-17 10:30N 26°05' W 080°07'0 0.0
2017-Nov-17 10:00N 26°05' W 080°07'0 0.0
2017-Nov-17 09:30N 26°05' W 080°07'0 0.0
2017-Nov-17 09:00N 26°05' W 080°07'0 0.0
2017-Nov-17 08:30N 26°05' W 080°07'0 0.0
2017-Nov-17 08:01N 26°05' W 080°07'0 0.0
2017-Nov-17 07:30N 26°05' W 080°07'0 0.0
2017-Nov-17 07:01N 26°05' W 080°07'0 0.0
2017-Nov-17 06:30N 26°05' W 080°07'0 0.0
2017-Nov-17 06:01N 26°05' W 080°07'0 0.0
2017-Nov-17 05:31N 26°05' W 080°07'0 0.0
2017-Nov-17 05:00N 26°05' W 080°07'0 0.0
2017-Nov-17 04:31N 26°05' W 080°07'0 0.0
2017-Nov-17 04:01N 26°05' W 080°07'0 0.0
2017-Nov-17 03:31N 26°05' W 080°07'0 0.0
2017-Nov-17 03:00N 26°05' W 080°07'0 0.0
2017-Nov-17 02:31N 26°05' W 080°07'0 0.0
2017-Nov-17 02:00N 26°05' W 080°07'0 0.0
2017-Nov-17 01:31N 26°05' W 080°07'0 0.0
2017-Nov-17 01:00N 26°05' W 080°07'0 0.0
2017-Nov-17 00:30N 26°05' W 080°07'0 0.0
2017-Nov-17 00:00N 26°05' W 080°07'0 0.0
2017-Nov-16 23:30N 26°05' W 080°07'0 0.0
2017-Nov-16 23:00N 26°05' W 080°07'0 0.0
2017-Nov-16 22:30N 26°05' W 080°07'0 0.0
2017-Nov-16 22:00N 26°05' W 080°07'0 0.0
2017-Nov-16 21:30N 26°05' W 080°07'0 0.0
2017-Nov-16 21:00N 26°05' W 080°07'0 0.0
2017-Nov-16 20:30N 26°05' W 080°07'0 0.0
2017-Nov-16 20:00N 26°05' W 080°07'0 0.0
2017-Nov-16 19:30N 26°05' W 080°07'0 0.0
2017-Nov-16 19:00N 26°05' W 080°07'1 1.2
2017-Nov-16 18:30N 26°05' W 080°07'0 1.0
2017-Nov-16 18:01N 26°05' W 080°07'0 0.6
2017-Nov-16 17:31N 26°05' W 080°07'0 0.0
2017-Nov-16 17:00N 26°05' W 080°07'0 0.0
2017-Nov-16 16:31N 26°05' W 080°07'0 0.0
2017-Nov-16 16:01N 26°05' W 080°07'0 0.0
2017-Nov-16 15:31N 26°05' W 080°07'0 0.0
2017-Nov-16 15:01N 26°05' W 080°07'0 0.0
2017-Nov-16 14:31N 26°05' W 080°07'0 0.0
2017-Nov-16 14:00N 26°05' W 080°07'0 0.0
2017-Nov-16 13:31N 26°05' W 080°07'0 0.0
2017-Nov-16 13:01N 26°05' W 080°07'0 0.0
2017-Nov-16 12:30N 26°05' W 080°07'0 0.0
2017-Nov-16 12:00N 26°05' W 080°07'0 0.0
2017-Nov-16 11:30N 26°05' W 080°07'0 0.0
2017-Nov-16 11:00N 26°05' W 080°07'0 0.0
2017-Nov-16 10:30N 26°05' W 080°07'0 0.0
2017-Nov-16 10:00N 26°05' W 080°07'0 0.0
2017-Nov-16 09:30N 26°05' W 080°07'1 1.2
2017-Nov-16 09:00N 26°06' W 080°07'1 2.8
2017-Nov-16 08:30N 26°06' W 080°05'2 3.6
2017-Nov-16 08:00N 26°04' W 080°07'1 2.8
2017-Nov-16 07:30N 26°06' W 080°07'1 2.2
2017-Nov-16 07:00N 26°05' W 080°07'1 1.6
2017-Nov-16 06:30N 26°04' W 080°07'1 1.9
2017-Nov-16 06:00N 26°05' W 080°07'0 0.0
2017-Nov-16 05:29N 26°05' W 080°07'0 0.0
2017-Nov-16 05:00N 26°05' W 080°07'0 0.0
2017-Nov-16 04:30N 26°05' W 080°07'0 0.0
2017-Nov-16 04:01N 26°05' W 080°07'0 0.0
2017-Nov-16 03:31N 26°05' W 080°07'0 0.0
2017-Nov-16 03:00N 26°05' W 080°07'1 1.6
2017-Nov-16 02:31N 26°06' W 080°07'1 1.6
2017-Nov-16 02:01N 26°05' W 080°07'0 0.0
2017-Nov-16 01:31N 26°05' W 080°07'0 0.0
2017-Nov-16 01:00N 26°05' W 080°07'0 0.0
2017-Nov-16 00:31N 26°05' W 080°07'0 0.0
2017-Nov-16 00:01N 26°05' W 080°07'0 0.0
2017-Nov-15 23:31N 26°05' W 080°07'0 0.0
2017-Nov-15 23:01N 26°05' W 080°07'0 0.0
2017-Nov-15 22:31N 26°05' W 080°07'0 0.0
2017-Nov-15 22:01N 26°05' W 080°07'0 0.0
2017-Nov-15 21:30N 26°05' W 080°07'0 0.0
2017-Nov-15 21:00N 26°05' W 080°07'0 0.0
2017-Nov-15 20:30N 26°05' W 080°07'0 0.0
2017-Nov-15 20:00N 26°05' W 080°07'0 0.0
2017-Nov-15 19:30N 26°05' W 080°07'0 0.0
2017-Nov-15 19:00N 26°05' W 080°07'0 0.0
2017-Nov-15 18:30N 26°05' W 080°07'1 1.3
2017-Nov-15 18:00N 26°06' W 080°07'2 3.1
2017-Nov-15 17:30N 26°04' W 080°07'1 1.9
2017-Nov-15 17:00N 26°05' W 080°07'0 0.0
2017-Nov-15 16:30N 26°05' W 080°07'0 0.0
2017-Nov-15 16:00N 26°05' W 080°07'0 0.0
2017-Nov-15 15:30N 26°05' W 080°07'0 0.0
2017-Nov-15 15:00N 26°05' W 080°07'0 0.0
2017-Nov-15 14:31N 26°05' W 080°07'0 0.0
2017-Nov-15 14:00N 26°05' W 080°07'0 0.0
2017-Nov-15 13:30N 26°05' W 080°07'0 0.0
2017-Nov-15 13:00N 26°05' W 080°07'0 0.0
2017-Nov-15 12:31N 26°05' W 080°07'0 0.0
2017-Nov-15 12:01N 26°05' W 080°07'0 0.0
2017-Nov-15 11:31N 26°05' W 080°07'0 0.0
2017-Nov-15 11:00N 26°05' W 080°07'0 0.3
2017-Nov-15 10:30N 26°05' W 080°07'0 0.9
2017-Nov-15 10:00N 26°04' W 080°07'1 2.6
2017-Nov-15 09:30N 26°06' W 080°07'1 2.7
2017-Nov-15 09:01N 26°05' W 080°05'1 2.8
2017-Nov-15 08:31N 26°05' W 080°07'0 0.0
2017-Nov-15 08:00N 26°05' W 080°07'0 0.0
2017-Nov-15 07:30N 26°05' W 080°07'0 0.0
2017-Nov-15 07:00N 26°05' W 080°07'0 0.0
2017-Nov-15 06:30N 26°05' W 080°07'1 1.2
2017-Nov-15 06:00N 26°05' W 080°07'0 0.0
2017-Nov-15 05:30N 26°05' W 080°07'0 0.4
2017-Nov-15 05:00N 26°06' W 080°07'1 2.7
2017-Nov-15 04:30N 26°06' W 080°06'1 2.9
2017-Nov-15 04:01N 26°06' W 080°07'0 0.1
2017-Nov-15 03:30N 26°06' W 080°07'0 0.3
2017-Nov-15 03:00N 26°05' W 080°07'0 0.5
2017-Nov-15 02:30N 26°06' W 080°07'0 0.5
2017-Nov-15 02:00N 26°05' W 080°07'0 0.9
2017-Nov-15 01:29N 26°06' W 080°07'0 0.0
2017-Nov-15 01:01N 26°06' W 080°07'1 1.9
2017-Nov-15 00:31N 26°06' W 080°06'0 0.5
2017-Nov-15 00:01N 26°06' W 080°07'1 1.5
2017-Nov-14 23:30N 26°05' W 080°07'0 0.0
2017-Nov-14 23:00N 26°05' W 080°07'0 0.0
2017-Nov-14 22:30N 26°05' W 080°07'0 0.0
2017-Nov-14 22:01N 26°05' W 080°07'0 0.0
2017-Nov-14 21:30N 26°05' W 080°07'0 0.0
2017-Nov-14 21:00N 26°05' W 080°07'0 0.0
2017-Nov-14 20:31N 26°05' W 080°07'0 0.0
2017-Nov-14 20:01N 26°05' W 080°07'0 0.0
2017-Nov-14 19:31N 26°05' W 080°07'0 0.0
2017-Nov-14 19:01N 26°05' W 080°07'0 0.0
2017-Nov-14 18:30N 26°05' W 080°07'0 0.0
2017-Nov-14 18:00N 26°05' W 080°07'0 0.0
2017-Nov-14 17:30N 26°05' W 080°07'0 0.0
2017-Nov-14 17:00N 26°05' W 080°07'0 0.0
2017-Nov-14 16:30N 26°05' W 080°07'0 0.0
2017-Nov-14 16:00N 26°05' W 080°07'0 0.0
2017-Nov-14 15:30N 26°05' W 080°07'0 0.0
2017-Nov-14 15:00N 26°05' W 080°07'0 0.0
2017-Nov-14 14:30N 26°05' W 080°07'0 0.0
2017-Nov-14 14:00N 26°05' W 080°07'0 0.0
2017-Nov-14 13:30N 26°05' W 080°07'0 0.0
2017-Nov-14 13:00N 26°05' W 080°07'0 0.0
2017-Nov-14 12:30N 26°05' W 080°07'0 0.0
2017-Nov-14 12:00N 26°05' W 080°07'0 0.6
2017-Nov-14 11:30N 26°05' W 080°07'0 0.9
2017-Nov-14 11:00N 26°04' W 080°07'1 2.9
2017-Nov-14 10:31N 26°06' W 080°06'1 1.6
2017-Nov-14 10:00N 26°05' W 080°07'0 0.0
2017-Nov-14 09:31N 26°05' W 080°07'0 0.0
2017-Nov-14 09:01N 26°05' W 080°07'0 0.0
2017-Nov-14 08:31N 26°05' W 080°07'0 0.0
2017-Nov-14 08:01N 26°05' W 080°07'0 0.0
2017-Nov-14 07:31N 26°05' W 080°07'0 0.0
2017-Nov-14 07:01N 26°05' W 080°07'0 0.0
2017-Nov-14 06:30N 26°05' W 080°07'0 0.0
2017-Nov-14 06:01N 26°05' W 080°07'0 0.0
2017-Nov-14 05:31N 26°05' W 080°07'0 0.0
2017-Nov-14 05:01N 26°05' W 080°07'0 0.0
2017-Nov-14 04:31N 26°05' W 080°07'1 1.4
2017-Nov-14 04:00N 26°06' W 080°07'0 0.0
2017-Nov-14 03:30N 26°06' W 080°07'1 1.4
2017-Nov-14 03:00N 26°05' W 080°07'0 0.0
2017-Nov-14 02:30N 26°05' W 080°07'0 0.0
2017-Nov-14 02:00N 26°05' W 080°07'0 0.0
2017-Nov-14 01:30N 26°05' W 080°07'0 0.0
2017-Nov-14 01:00N 26°05' W 080°07'0 0.0
2017-Nov-14 00:30N 26°05' W 080°07'0 0.0
2017-Nov-14 00:00N 26°05' W 080°07'0 0.0
2017-Nov-13 23:30N 26°05' W 080°07'0 0.0
2017-Nov-13 23:00N 26°05' W 080°07'0 0.0
2017-Nov-13 22:30N 26°05' W 080°07'0 0.0
2017-Nov-13 22:00N 26°05' W 080°07'0 0.0
2017-Nov-13 02:01N 26°05' W 080°07'0 0.0
2017-Nov-13 01:31N 26°05' W 080°07'0 0.0
2017-Nov-13 01:00N 26°05' W 080°07'0 0.0
2017-Nov-13 00:30N 26°05' W 080°07'0 0.0
2017-Nov-13 00:00N 26°05' W 080°07'0 0.0
2017-Nov-12 23:30N 26°05' W 080°07'0 0.0
2017-Nov-12 23:00N 26°05' W 080°07'0 0.0
2017-Nov-12 22:30N 26°05' W 080°07'0 0.0
2017-Nov-12 22:00N 26°05' W 080°07'0 0.0
2017-Nov-12 21:30N 26°05' W 080°07'0 0.0
2017-Nov-12 21:00N 26°05' W 080°07'0 0.0
2017-Nov-12 20:30N 26°05' W 080°07'0 0.0
2017-Nov-12 20:01N 26°05' W 080°07'0 0.0
2017-Nov-12 19:30N 26°05' W 080°07'0 0.0
2017-Nov-12 19:00N 26°05' W 080°07'0 0.0
2017-Nov-12 18:30N 26°05' W 080°07'0 0.0
2017-Nov-12 18:00N 26°05' W 080°07'0 0.0
2017-Nov-12 17:30N 26°05' W 080°07'0 0.0
2017-Nov-12 17:00N 26°05' W 080°07'0 0.0
2017-Nov-12 16:30N 26°05' W 080°07'0 0.0
2017-Nov-12 16:01N 26°05' W 080°07'0 0.0
2017-Nov-12 15:31N 26°05' W 080°07'0 0.0
2017-Nov-12 15:00N 26°05' W 080°07'0 0.0
2017-Nov-12 14:31N 26°05' W 080°07'0 0.0
2017-Nov-12 14:00N 26°05' W 080°07'0 0.0
2017-Nov-12 13:31N 26°05' W 080°07'0 0.0
2017-Nov-12 13:01N 26°05' W 080°07'0 0.0
2017-Nov-12 12:31N 26°05' W 080°07'0 0.0
2017-Nov-12 12:01N 26°05' W 080°07'0 0.0
2017-Nov-12 11:30N 26°05' W 080°07'0 0.0
2017-Nov-12 11:01N 26°05' W 080°07'0 0.0
2017-Nov-12 10:30N 26°05' W 080°07'0 0.0
2017-Nov-12 10:00N 26°05' W 080°07'0 0.0
2017-Nov-12 09:30N 26°05' W 080°07'0 0.0
2017-Nov-12 09:00N 26°05' W 080°07'0 0.0
2017-Nov-12 08:30N 26°05' W 080°07'0 0.0
2017-Nov-12 08:00N 26°05' W 080°07'0 0.0
2017-Nov-12 07:30N 26°05' W 080°07'0 0.0
2017-Nov-12 07:00N 26°05' W 080°07'0 0.0
2017-Nov-12 06:30N 26°05' W 080°07'0 0.0
2017-Nov-12 06:00N 26°05' W 080°07'0 0.0
2017-Nov-12 05:30N 26°05' W 080°07'0 0.0
2017-Nov-12 05:00N 26°05' W 080°07'0 0.0
2017-Nov-12 04:30N 26°05' W 080°07'0 0.0
2017-Nov-12 04:00N 26°05' W 080°07'0 0.0
2017-Nov-12 03:30N 26°05' W 080°07'0 0.0
2017-Nov-12 03:01N 26°05' W 080°07'0 0.0
2017-Nov-12 02:31N 26°05' W 080°07'0 0.0
2017-Nov-12 02:00N 26°05' W 080°07'0 0.0
2017-Nov-12 01:30N 26°05' W 080°07'0 0.0
2017-Nov-12 01:01N 26°05' W 080°07'0 0.0
2017-Nov-12 00:31N 26°05' W 080°07'0 0.0
2017-Nov-12 00:01N 26°05' W 080°07'0 0.0
2017-Nov-11 23:30N 26°05' W 080°07'0 0.0
2017-Nov-11 23:00N 26°05' W 080°07'0 0.0
2017-Nov-11 22:31N 26°05' W 080°07'0 0.0
2017-Nov-11 22:01N 26°05' W 080°07'0 0.0
2017-Nov-11 21:31N 26°05' W 080°07'0 0.0
2017-Nov-11 21:00N 26°05' W 080°07'0 0.0
2017-Nov-11 20:30N 26°05' W 080°07'0 0.0
2017-Nov-11 20:00N 26°05' W 080°07'0 0.0
2017-Nov-11 19:30N 26°05' W 080°07'0 0.0
2017-Nov-11 19:00N 26°05' W 080°07'0 0.0
2017-Nov-11 18:30N 26°05' W 080°07'0 0.0
2017-Nov-11 18:00N 26°05' W 080°07'0 0.0
2017-Nov-11 17:30N 26°05' W 080°07'0 0.0
2017-Nov-11 17:00N 26°05' W 080°07'0 0.0
2017-Nov-11 16:30N 26°05' W 080°07'0 0.0
2017-Nov-11 16:00N 26°05' W 080°07'0 0.0
2017-Nov-11 15:30N 26°05' W 080°07'0 0.0
2017-Nov-11 15:00N 26°05' W 080°07'0 0.0
2017-Nov-11 14:30N 26°05' W 080°07'0 0.0
2017-Nov-11 14:00N 26°05' W 080°07'0 0.0
2017-Nov-11 13:31N 26°05' W 080°07'0 0.0
2017-Nov-11 13:01N 26°05' W 080°07'0 0.0
2017-Nov-11 12:31N 26°05' W 080°07'0 0.0
2017-Nov-11 12:00N 26°05' W 080°07'0 0.0
2017-Nov-11 11:31N 26°05' W 080°07'0 0.0
2017-Nov-11 11:01N 26°05' W 080°07'0 0.0
2017-Nov-11 10:31N 26°05' W 080°07'0 0.0
2017-Nov-11 10:01N 26°05' W 080°07'0 0.0
2017-Nov-11 09:31N 26°05' W 080°07'0 0.0
2017-Nov-11 09:00N 26°05' W 080°07'0 0.0
2017-Nov-11 08:31N 26°05' W 080°07'0 0.0
2017-Nov-11 08:01N 26°05' W 080°07'0 0.0
2017-Nov-11 07:31N 26°05' W 080°07'0 0.0
2017-Nov-11 07:00N 26°05' W 080°07'0 0.0
2017-Nov-11 06:30N 26°05' W 080°07'0 0.0
2017-Nov-11 06:00N 26°05' W 080°07'0 0.0
2017-Nov-11 05:30N 26°05' W 080°07'0 0.0
2017-Nov-11 05:00N 26°05' W 080°07'0 0.0
2017-Nov-11 04:30N 26°05' W 080°07'0 0.0
2017-Nov-11 04:00N 26°05' W 080°07'0 0.0
2017-Nov-11 03:30N 26°05' W 080°07'0 0.0
2017-Nov-11 03:00N 26°05' W 080°07'0 0.0
2017-Nov-11 02:30N 26°05' W 080°07'0 0.0
2017-Nov-11 02:00N 26°05' W 080°07'0 0.0
2017-Nov-11 01:30N 26°05' W 080°07'0 0.0
2017-Nov-11 01:00N 26°05' W 080°07'0 0.0
2017-Nov-11 00:30N 26°05' W 080°07'0 0.0
2017-Nov-11 00:00N 26°05' W 080°07'0 0.0
2017-Nov-10 23:31N 26°05' W 080°07'0 0.0
2017-Nov-10 23:00N 26°05' W 080°07'0 0.0
2017-Nov-10 22:31N 26°05' W 080°07'0 0.0
2017-Nov-10 22:01N 26°05' W 080°07'0 0.0
2017-Nov-10 21:31N 26°05' W 080°07'0 0.0
2017-Nov-10 21:00N 26°05' W 080°07'0 0.0
2017-Nov-10 20:31N 26°05' W 080°07'0 0.0
2017-Nov-10 20:01N 26°05' W 080°07'0 0.0
2017-Nov-10 19:31N 26°05' W 080°07'0 0.0
2017-Nov-10 19:01N 26°05' W 080°07'0 0.0
2017-Nov-10 18:30N 26°05' W 080°07'0 0.0
2017-Nov-10 18:00N 26°05' W 080°07'0 0.0
2017-Nov-10 17:31N 26°05' W 080°07'0 0.0
2017-Nov-10 17:01N 26°05' W 080°07'0 0.0
2017-Nov-10 16:31N 26°05' W 080°07'0 0.0
2017-Nov-10 16:00N 26°05' W 080°07'0 0.0
2017-Nov-10 15:30N 26°05' W 080°07'0 0.0
2017-Nov-10 15:00N 26°05' W 080°07'0 0.0
2017-Nov-10 14:30N 26°05' W 080°07'0 0.0
2017-Nov-10 14:01N 26°05' W 080°07'0 0.0
2017-Nov-10 13:31N 26°05' W 080°07'0 0.0
2017-Nov-10 13:01N 26°05' W 080°07'0 0.0
2017-Nov-10 12:31N 26°05' W 080°07'0 0.0
2017-Nov-10 12:01N 26°05' W 080°07'0 0.0
2017-Nov-10 11:30N 26°05' W 080°07'0 0.0
2017-Nov-10 11:00N 26°05' W 080°07'0 0.0
2017-Nov-10 10:31N 26°05' W 080°07'0 0.0
2017-Nov-10 10:00N 26°05' W 080°07'0 0.0
2017-Nov-10 09:31N 26°05' W 080°07'0 0.0
2017-Nov-10 09:01N 26°05' W 080°07'0 0.0
2017-Nov-10 08:30N 26°05' W 080°07'0 0.0
2017-Nov-10 08:00N 26°05' W 080°07'0 0.0
2017-Nov-10 07:31N 26°05' W 080°07'0 0.0
2017-Nov-10 07:00N 26°05' W 080°07'0 0.0
2017-Nov-10 06:31N 26°05' W 080°07'0 0.0
2017-Nov-10 06:00N 26°05' W 080°07'0 0.0
2017-Nov-10 05:31N 26°05' W 080°07'0 0.0
2017-Nov-10 05:01N 26°05' W 080°07'0 0.0
2017-Nov-10 04:31N 26°05' W 080°07'0 0.0
2017-Nov-10 04:01N 26°05' W 080°07'0 0.0
2017-Nov-10 03:31N 26°05' W 080°07'0 0.0
2017-Nov-10 03:00N 26°05' W 080°07'0 0.0
2017-Nov-10 02:31N 26°05' W 080°07'0 0.0
2017-Nov-10 02:01N 26°05' W 080°07'0 0.0
2017-Nov-10 01:30N 26°05' W 080°07'0 0.0
2017-Nov-10 01:01N 26°05' W 080°07'0 0.0
2017-Nov-10 00:31N 26°05' W 080°07'0 0.0
2017-Nov-10 00:01N 26°05' W 080°07'0 0.0
2017-Nov-09 23:30N 26°05' W 080°07'0 0.0
2017-Nov-09 23:01N 26°05' W 080°07'0 0.0
2017-Nov-09 22:30N 26°05' W 080°07'0 0.0
2017-Nov-09 22:01N 26°05' W 080°07'0 0.0
2017-Nov-09 21:30N 26°05' W 080°07'0 0.0
2017-Nov-09 21:01N 26°05' W 080°07'0 0.0
2017-Nov-09 20:30N 26°05' W 080°07'0 0.0
2017-Nov-09 20:01N 26°05' W 080°07'0 0.0
2017-Nov-09 19:30N 26°05' W 080°07'0 0.0
2017-Nov-09 19:00N 26°05' W 080°07'0 0.0
2017-Nov-09 18:30N 26°05' W 080°07'0 0.0
2017-Nov-09 18:01N 26°05' W 080°07'0 0.0
2017-Nov-09 17:31N 26°05' W 080°07'0 0.0
2017-Nov-09 17:01N 26°05' W 080°07'0 0.0
2017-Nov-09 16:31N 26°05' W 080°07'0 0.0
2017-Nov-09 16:01N 26°05' W 080°07'0 0.0
2017-Nov-09 15:31N 26°05' W 080°07'0 0.0
2017-Nov-09 15:00N 26°05' W 080°07'0 0.0
2017-Nov-09 14:31N 26°05' W 080°07'0 0.0
2017-Nov-09 14:01N 26°05' W 080°07'0 0.0
2017-Nov-09 13:31N 26°05' W 080°07'0 0.0
2017-Nov-09 13:01N 26°05' W 080°07'0 0.0
2017-Nov-09 12:31N 26°05' W 080°07'0 0.0
2017-Nov-09 12:01N 26°05' W 080°07'0 0.0
2017-Nov-09 11:31N 26°05' W 080°07'0 0.0
2017-Nov-09 11:00N 26°05' W 080°07'0 0.0
2017-Nov-09 10:31N 26°05' W 080°07'0 0.0
2017-Nov-09 10:00N 26°05' W 080°07'0 0.0
2017-Nov-09 09:30N 26°05' W 080°07'0 0.0
2017-Nov-09 09:01N 26°05' W 080°07'0 0.0
2017-Nov-09 08:31N 26°05' W 080°07'0 0.0
2017-Nov-09 08:00N 26°05' W 080°07'0 0.0
2017-Nov-09 07:31N 26°05' W 080°07'0 0.0
2017-Nov-09 07:00N 26°05' W 080°07'0 0.0
2017-Nov-09 06:30N 26°05' W 080°07'0 0.0
2017-Nov-09 06:01N 26°05' W 080°07'0 0.0
2017-Nov-09 05:31N 26°05' W 080°07'0 0.0
2017-Nov-09 05:01N 26°05' W 080°07'0 0.0
2017-Nov-09 04:31N 26°05' W 080°07'0 0.0
2017-Nov-09 04:00N 26°05' W 080°07'0 0.0
2017-Nov-09 03:31N 26°05' W 080°07'0 0.0
2017-Nov-09 03:01N 26°05' W 080°07'0 0.0
2017-Nov-09 02:31N 26°05' W 080°07'0 0.0
2017-Nov-09 02:01N 26°05' W 080°07'0 0.0
2017-Nov-09 01:30N 26°05' W 080°07'0 0.0
2017-Nov-09 01:01N 26°05' W 080°07'0 0.0
2017-Nov-09 00:31N 26°05' W 080°07'0 0.0
2017-Nov-09 00:01N 26°05' W 080°07'0 0.0
2017-Nov-08 23:30N 26°05' W 080°07'0 0.0
2017-Nov-08 23:00N 26°05' W 080°07'0 0.0
2017-Nov-08 22:31N 26°05' W 080°07'0 0.0
2017-Nov-08 22:00N 26°05' W 080°07'0 0.0
2017-Nov-08 21:31N 26°05' W 080°07'0 0.0
2017-Nov-08 21:01N 26°05' W 080°07'0 0.0
2017-Nov-08 20:31N 26°05' W 080°07'0 0.0
2017-Nov-08 20:00N 26°05' W 080°07'0 0.0
2017-Nov-08 19:31N 26°05' W 080°07'0 0.0
2017-Nov-08 19:01N 26°05' W 080°07'0 0.0
2017-Nov-08 18:30N 26°05' W 080°07'0 0.0
2017-Nov-08 18:01N 26°05' W 080°07'0 0.0
2017-Nov-08 17:31N 26°05' W 080°07'0 0.0
2017-Nov-08 17:00N 26°05' W 080°07'0 0.0
2017-Nov-08 16:31N 26°05' W 080°07'0 0.0
2017-Nov-08 16:01N 26°05' W 080°07'0 0.0
2017-Nov-08 15:30N 26°05' W 080°07'0 0.0
2017-Nov-08 15:00N 26°05' W 080°07'0 0.0
2017-Nov-08 14:31N 26°05' W 080°07'0 0.0
2017-Nov-08 14:01N 26°05' W 080°07'  
Track history (hours):
 
Tides and Currents Weather Stations Pressure Air Temp Water Temp Dewpoint Dewpoint Depression Visibility Wind Speed Wind Dir Waves Ship Positions

Tug Hawk

Owner: Seabulk Towing, Inc., FORT LAUDERDALE, FL. More information available from US FCC via Universal Licensing System and Coast Guard Vessel Documentation Center.

Last reported at 2017-Nov-18 13:51 UTC. Time now 2017-Nov-22 18:39 UTC.
Position N 25°24' W 080°05'.

Length 32 m; draft 5 m.

Type: Tug. MMSI: 366943250.

Date/timePositionNaut miles runAvg speedWind from/ knotsBaromVisibWave heightAir tempDewpointWater temp
2017-Nov-18 13:51N 25°24' W 080°05'3 9.1
2017-Nov-18 13:30N 25°27' W 080°05'4 8.9
2017-Nov-18 13:00N 25°31' W 080°04'4 8.3
2017-Nov-18 12:30N 25°35' W 080°04'4 9.0
2017-Nov-18 12:01N 25°40' W 080°04'5 9.1
2017-Nov-18 11:31N 25°44' W 080°04'5 9.1
2017-Nov-18 11:01N 25°49' W 080°04'4 8.7
2017-Nov-18 10:31N 25°53' W 080°04'4 8.9
2017-Nov-18 10:00N 25°58' W 080°04'5 9.1
2017-Nov-18 09:31N 26°02' W 080°04'4 7.6
2017-Nov-18 09:01N 26°06' W 080°06'1 1.8
2017-Nov-18 08:31N 26°05' W 080°07'0 0.0
2017-Nov-18 08:01N 26°05' W 080°07'0 0.0
2017-Nov-18 07:31N 26°05' W 080°07'0 0.0
2017-Nov-18 07:01N 26°05' W 080°07'0 0.0
2017-Nov-18 06:31N 26°05' W 080°07'0 0.0
2017-Nov-18 06:01N 26°05' W 080°07'0 0.0
2017-Nov-18 05:31N 26°05' W 080°07'0 0.0
2017-Nov-18 05:00N 26°05' W 080°07'0 0.0
2017-Nov-18 04:31N 26°05' W 080°07'0 0.0
2017-Nov-18 04:00N 26°05' W 080°07'0 0.0
2017-Nov-18 03:30N 26°05' W 080°07'0 0.0
2017-Nov-18 03:00N 26°05' W 080°07'0 0.0
2017-Nov-18 02:30N 26°05' W 080°07'0 0.0
2017-Nov-18 02:00N 26°05' W 080°07'0 0.0
2017-Nov-18 01:30N 26°05' W 080°07'0 0.0
2017-Nov-18 01:00N 26°05' W 080°07'0 0.1
2017-Nov-18 00:30N 26°05' W 080°07'0 0.0
2017-Nov-18 00:00N 26°05' W 080°07'0 0.0
2017-Nov-17 23:30N 26°05' W 080°07'0 0.0
2017-Nov-17 23:00N 26°05' W 080°07'0 0.0
2017-Nov-17 22:30N 26°05' W 080°07'0 0.0
2017-Nov-17 22:01N 26°05' W 080°07'0 0.0
2017-Nov-17 21:31N 26°05' W 080°07'0 0.0
2017-Nov-17 21:01N 26°05' W 080°07'0 0.0
2017-Nov-17 20:31N 26°05' W 080°07'0 0.0
2017-Nov-17 20:01N 26°05' W 080°07'0 0.0
2017-Nov-17 19:31N 26°05' W 080°07'0 0.0
2017-Nov-17 19:00N 26°05' W 080°07'0 0.0
2017-Nov-17 18:30N 26°05' W 080°07'0 0.0
2017-Nov-17 18:01N 26°05' W 080°07'0 0.0
2017-Nov-17 17:30N 26°05' W 080°07'0 0.0
2017-Nov-17 17:01N 26°05' W 080°07'0 0.0
2017-Nov-17 16:30N 26°05' W 080°07'0 0.0
2017-Nov-17 16:01N 26°05' W 080°07'0 0.0
2017-Nov-17 15:30N 26°05' W 080°07'0 0.0
2017-Nov-17 15:00N 26°05' W 080°07'0 0.0
2017-Nov-17 14:30N 26°05' W 080°07'0 0.0
2017-Nov-17 14:00N 26°05' W 080°07'0 0.0
2017-Nov-17 13:30N 26°05' W 080°07'0 0.0
2017-Nov-17 13:00N 26°05' W 080°07'0 0.0
2017-Nov-17 12:30N 26°05' W 080°07'0 0.0
2017-Nov-17 12:00N 26°05' W 080°07'0 0.0
2017-Nov-17 11:30N 26°05' W 080°07'0 0.0
2017-Nov-17 11:00N 26°05' W 080°07'0 0.0
2017-Nov-17 10:30N 26°05' W 080°07'0 0.0
2017-Nov-17 10:00N 26°05' W 080°07'0 0.0
2017-Nov-17 09:30N 26°05' W 080°07'0 0.0
2017-Nov-17 09:00N 26°05' W 080°07'0 0.0
2017-Nov-17 08:30N 26°05' W 080°07'0 0.0
2017-Nov-17 08:01N 26°05' W 080°07'0 0.0
2017-Nov-17 07:30N 26°05' W 080°07'0 0.0
2017-Nov-17 07:01N 26°05' W 080°07'0 0.0
2017-Nov-17 06:30N 26°05' W 080°07'0 0.0
2017-Nov-17 06:01N 26°05' W 080°07'0 0.0
2017-Nov-17 05:31N 26°05' W 080°07'0 0.0
2017-Nov-17 05:00N 26°05' W 080°07'0 0.0
2017-Nov-17 04:31N 26°05' W 080°07'0 0.0
2017-Nov-17 04:01N 26°05' W 080°07'0 0.0
2017-Nov-17 03:31N 26°05' W 080°07'0 0.0
2017-Nov-17 03:00N 26°05' W 080°07'0 0.0
2017-Nov-17 02:31N 26°05' W 080°07'0 0.0
2017-Nov-17 02:00N 26°05' W 080°07'0 0.0
2017-Nov-17 01:31N 26°05' W 080°07'0 0.0
2017-Nov-17 01:00N 26°05' W 080°07'0 0.0
2017-Nov-17 00:30N 26°05' W 080°07'0 0.0
2017-Nov-17 00:00N 26°05' W 080°07'0 0.0
2017-Nov-16 23:30N 26°05' W 080°07'0 0.0
2017-Nov-16 23:00N 26°05' W 080°07'0 0.0
2017-Nov-16 22:30N 26°05' W 080°07'0 0.0
2017-Nov-16 22:00N 26°05' W 080°07'0 0.0
2017-Nov-16 21:30N 26°05' W 080°07'0 0.0
2017-Nov-16 21:00N 26°05' W 080°07'0 0.0
2017-Nov-16 20:30N 26°05' W 080°07'0 0.0
2017-Nov-16 20:00N 26°05' W 080°07'0 0.0
2017-Nov-16 19:30N 26°05' W 080°07'0 0.0
2017-Nov-16 19:00N 26°05' W 080°07'1 1.2
2017-Nov-16 18:30N 26°05' W 080°07'0 1.0
2017-Nov-16 18:01N 26°05' W 080°07'0 0.6
2017-Nov-16 17:31N 26°05' W 080°07'0 0.0
2017-Nov-16 17:00N 26°05' W 080°07'0 0.0
2017-Nov-16 16:31N 26°05' W 080°07'0 0.0
2017-Nov-16 16:01N 26°05' W 080°07'0 0.0
2017-Nov-16 15:31N 26°05' W 080°07'0 0.0
2017-Nov-16 15:01N 26°05' W 080°07'0 0.0
2017-Nov-16 14:31N 26°05' W 080°07'0 0.0
2017-Nov-16 14:00N 26°05' W 080°07'0 0.0
2017-Nov-16 13:31N 26°05' W 080°07'0 0.0
2017-Nov-16 13:01N 26°05' W 080°07'0 0.0
2017-Nov-16 12:30N 26°05' W 080°07'0 0.0
2017-Nov-16 12:00N 26°05' W 080°07'0 0.0
2017-Nov-16 11:30N 26°05' W 080°07'0 0.0
2017-Nov-16 11:00N 26°05' W 080°07'0 0.0
2017-Nov-16 10:30N 26°05' W 080°07'0 0.0
2017-Nov-16 10:00N 26°05' W 080°07'0 0.0
2017-Nov-16 09:30N 26°05' W 080°07'1 1.2
2017-Nov-16 09:00N 26°06' W 080°07'1 2.8
2017-Nov-16 08:30N 26°06' W 080°05'2 3.6
2017-Nov-16 08:00N 26°04' W 080°07'1 2.8
2017-Nov-16 07:30N 26°06' W 080°07'1 2.2
2017-Nov-16 07:00N 26°05' W 080°07'1 1.6
2017-Nov-16 06:30N 26°04' W 080°07'1 1.9
2017-Nov-16 06:00N 26°05' W 080°07'0 0.0
2017-Nov-16 05:29N 26°05' W 080°07'0 0.0
2017-Nov-16 05:00N 26°05' W 080°07'0 0.0
2017-Nov-16 04:30N 26°05' W 080°07'0 0.0
2017-Nov-16 04:01N 26°05' W 080°07'0 0.0
2017-Nov-16 03:31N 26°05' W 080°07'0 0.0
2017-Nov-16 03:00N 26°05' W 080°07'1 1.6
2017-Nov-16 02:31N 26°06' W 080°07'1 1.6
2017-Nov-16 02:01N 26°05' W 080°07'0 0.0
2017-Nov-16 01:31N 26°05' W 080°07'0 0.0
2017-Nov-16 01:00N 26°05' W 080°07'0 0.0
2017-Nov-16 00:31N 26°05' W 080°07'0 0.0
2017-Nov-16 00:01N 26°05' W 080°07'0 0.0
2017-Nov-15 23:31N 26°05' W 080°07'0 0.0
2017-Nov-15 23:01N 26°05' W 080°07'0 0.0
2017-Nov-15 22:31N 26°05' W 080°07'0 0.0
2017-Nov-15 22:01N 26°05' W 080°07'0 0.0
2017-Nov-15 21:30N 26°05' W 080°07'0 0.0
2017-Nov-15 21:00N 26°05' W 080°07'0 0.0
2017-Nov-15 20:30N 26°05' W 080°07'0 0.0
2017-Nov-15 20:00N 26°05' W 080°07'0 0.0
2017-Nov-15 19:30N 26°05' W 080°07'0 0.0
2017-Nov-15 19:00N 26°05' W 080°07'0 0.0
2017-Nov-15 18:30N 26°05' W 080°07'1 1.3
2017-Nov-15 18:00N 26°06' W 080°07'2 3.1
2017-Nov-15 17:30N 26°04' W 080°07'1 1.9
2017-Nov-15 17:00N 26°05' W 080°07'0 0.0
2017-Nov-15 16:30N 26°05' W 080°07'0 0.0
2017-Nov-15 16:00N 26°05' W 080°07'0 0.0
2017-Nov-15 15:30N 26°05' W 080°07'0 0.0
2017-Nov-15 15:00N 26°05' W 080°07'0 0.0
2017-Nov-15 14:31N 26°05' W 080°07'0 0.0
2017-Nov-15 14:00N 26°05' W 080°07'0 0.0
2017-Nov-15 13:30N 26°05' W 080°07'0 0.0
2017-Nov-15 13:00N 26°05' W 080°07'0 0.0
2017-Nov-15 12:31N 26°05' W 080°07'0 0.0
2017-Nov-15 12:01N 26°05' W 080°07'0 0.0
2017-Nov-15 11:31N 26°05' W 080°07'0 0.0
2017-Nov-15 11:00N 26°05' W 080°07'0 0.3
2017-Nov-15 10:30N 26°05' W 080°07'0 0.9
2017-Nov-15 10:00N 26°04' W 080°07'1 2.6
2017-Nov-15 09:30N 26°06' W 080°07'1 2.7
2017-Nov-15 09:01N 26°05' W 080°05'1 2.8
2017-Nov-15 08:31N 26°05' W 080°07'0 0.0
2017-Nov-15 08:00N 26°05' W 080°07'0 0.0
2017-Nov-15 07:30N 26°05' W 080°07'0 0.0
2017-Nov-15 07:00N 26°05' W 080°07'0 0.0
2017-Nov-15 06:30N 26°05' W 080°07'1 1.2
2017-Nov-15 06:00N 26°05' W 080°07'0 0.0
2017-Nov-15 05:30N 26°05' W 080°07'0 0.4
2017-Nov-15 05:00N 26°06' W 080°07'1 2.7
2017-Nov-15 04:30N 26°06' W 080°06'1 2.9
2017-Nov-15 04:01N 26°06' W 080°07'0 0.1
2017-Nov-15 03:30N 26°06' W 080°07'0 0.3
2017-Nov-15 03:00N 26°05' W 080°07'0 0.5
2017-Nov-15 02:30N 26°06' W 080°07'0 0.5
2017-Nov-15 02:00N 26°05' W 080°07'0 0.9
2017-Nov-15 01:29N 26°06' W 080°07'0 0.0
2017-Nov-15 01:01N 26°06' W 080°07'1 1.9
2017-Nov-15 00:31N 26°06' W 080°06'0 0.5
2017-Nov-15 00:01N 26°06' W 080°07'1 1.5
2017-Nov-14 23:30N 26°05' W 080°07'0 0.0
2017-Nov-14 23:00N 26°05' W 080°07'0 0.0
2017-Nov-14 22:30N 26°05' W 080°07'0 0.0
2017-Nov-14 22:01N 26°05' W 080°07'0 0.0
2017-Nov-14 21:30N 26°05' W 080°07'0 0.0
2017-Nov-14 21:00N 26°05' W 080°07'0 0.0
2017-Nov-14 20:31N 26°05' W 080°07'0 0.0
2017-Nov-14 20:01N 26°05' W 080°07'0 0.0
2017-Nov-14 19:31N 26°05' W 080°07'0 0.0
2017-Nov-14 19:01N 26°05' W 080°07'0 0.0
2017-Nov-14 18:30N 26°05' W 080°07'0 0.0
2017-Nov-14 18:00N 26°05' W 080°07'0 0.0
2017-Nov-14 17:30N 26°05' W 080°07'0 0.0
2017-Nov-14 17:00N 26°05' W 080°07'0 0.0
2017-Nov-14 16:30N 26°05' W 080°07'0 0.0
2017-Nov-14 16:00N 26°05' W 080°07'0 0.0
2017-Nov-14 15:30N 26°05' W 080°07'0 0.0
2017-Nov-14 15:00N 26°05' W 080°07'0 0.0
2017-Nov-14 14:30N 26°05' W 080°07'0 0.0
2017-Nov-14 14:00N 26°05' W 080°07'0 0.0
2017-Nov-14 13:30N 26°05' W 080°07'0 0.0
2017-Nov-14 13:00N 26°05' W 080°07'0 0.0
2017-Nov-14 12:30N 26°05' W 080°07'0 0.0
2017-Nov-14 12:00N 26°05' W 080°07'0 0.6
2017-Nov-14 11:30N 26°05' W 080°07'0 0.9
2017-Nov-14 11:00N 26°04' W 080°07'1 2.9
2017-Nov-14 10:31N 26°06' W 080°06'1 1.6
2017-Nov-14 10:00N 26°05' W 080°07'0 0.0
2017-Nov-14 09:31N 26°05' W 080°07'0 0.0
2017-Nov-14 09:01N 26°05' W 080°07'0 0.0
2017-Nov-14 08:31N 26°05' W 080°07'0 0.0
2017-Nov-14 08:01N 26°05' W 080°07'0 0.0
2017-Nov-14 07:31N 26°05' W 080°07'0 0.0
2017-Nov-14 07:01N 26°05' W 080°07'0 0.0
2017-Nov-14 06:30N 26°05' W 080°07'0 0.0
2017-Nov-14 06:01N 26°05' W 080°07'0 0.0
2017-Nov-14 05:31N 26°05' W 080°07'0 0.0
2017-Nov-14 05:01N 26°05' W 080°07'0 0.0
2017-Nov-14 04:31N 26°05' W 080°07'1 1.4
2017-Nov-14 04:00N 26°06' W 080°07'0 0.0
2017-Nov-14 03:30N 26°06' W 080°07'1 1.4
2017-Nov-14 03:00N 26°05' W 080°07'0 0.0
2017-Nov-14 02:30N 26°05' W 080°07'0 0.0
2017-Nov-14 02:00N 26°05' W 080°07'0 0.0
2017-Nov-14 01:30N 26°05' W 080°07'0 0.0
2017-Nov-14 01:00N 26°05' W 080°07'0 0.0
2017-Nov-14 00:30N 26°05' W 080°07'0 0.0
2017-Nov-14 00:00N 26°05' W 080°07'0 0.0
2017-Nov-13 23:30N 26°05' W 080°07'0 0.0
2017-Nov-13 23:00N 26°05' W 080°07'0 0.0
2017-Nov-13 22:30N 26°05' W 080°07'0 0.0
2017-Nov-13 22:00N 26°05' W 080°07'0 0.0
2017-Nov-13 02:01N 26°05' W 080°07'0 0.0
2017-Nov-13 01:31N 26°05' W 080°07'0 0.0
2017-Nov-13 01:00N 26°05' W 080°07'0 0.0
2017-Nov-13 00:30N 26°05' W 080°07'0 0.0
2017-Nov-13 00:00N 26°05' W 080°07'0 0.0
2017-Nov-12 23:30N 26°05' W 080°07'0 0.0
2017-Nov-12 23:00N 26°05' W 080°07'0 0.0
2017-Nov-12 22:30N 26°05' W 080°07'0 0.0
2017-Nov-12 22:00N 26°05' W 080°07'0 0.0
2017-Nov-12 21:30N 26°05' W 080°07'0 0.0
2017-Nov-12 21:00N 26°05' W 080°07'0 0.0
2017-Nov-12 20:30N 26°05' W 080°07'0 0.0
2017-Nov-12 20:01N 26°05' W 080°07'0 0.0
2017-Nov-12 19:30N 26°05' W 080°07'0 0.0
2017-Nov-12 19:00N 26°05' W 080°07'0 0.0
2017-Nov-12 18:30N 26°05' W 080°07'0 0.0
2017-Nov-12 18:00N 26°05' W 080°07'0 0.0
2017-Nov-12 17:30N 26°05' W 080°07'0 0.0
2017-Nov-12 17:00N 26°05' W 080°07'0 0.0
2017-Nov-12 16:30N 26°05' W 080°07'0 0.0
2017-Nov-12 16:01N 26°05' W 080°07'0 0.0
2017-Nov-12 15:31N 26°05' W 080°07'0 0.0
2017-Nov-12 15:00N 26°05' W 080°07'0 0.0
2017-Nov-12 14:31N 26°05' W 080°07'0 0.0
2017-Nov-12 14:00N 26°05' W 080°07'0 0.0
2017-Nov-12 13:31N 26°05' W 080°07'0 0.0
2017-Nov-12 13:01N 26°05' W 080°07'0 0.0
2017-Nov-12 12:31N 26°05' W 080°07'0 0.0
2017-Nov-12 12:01N 26°05' W 080°07'0 0.0
2017-Nov-12 11:30N 26°05' W 080°07'0 0.0
2017-Nov-12 11:01N 26°05' W 080°07'0 0.0
2017-Nov-12 10:30N 26°05' W 080°07'0 0.0
2017-Nov-12 10:00N 26°05' W 080°07'0 0.0
2017-Nov-12 09:30N 26°05' W 080°07'0 0.0
2017-Nov-12 09:00N 26°05' W 080°07'0 0.0
2017-Nov-12 08:30N 26°05' W 080°07'0 0.0
2017-Nov-12 08:00N 26°05' W 080°07'0 0.0
2017-Nov-12 07:30N 26°05' W 080°07'0 0.0
2017-Nov-12 07:00N 26°05' W 080°07'0 0.0
2017-Nov-12 06:30N 26°05' W 080°07'0 0.0
2017-Nov-12 06:00N 26°05' W 080°07'0 0.0
2017-Nov-12 05:30N 26°05' W 080°07'0 0.0
2017-Nov-12 05:00N 26°05' W 080°07'0 0.0
2017-Nov-12 04:30N 26°05' W 080°07'0 0.0
2017-Nov-12 04:00N 26°05' W 080°07'0 0.0
2017-Nov-12 03:30N 26°05' W 080°07'0 0.0
2017-Nov-12 03:01N 26°05' W 080°07'0 0.0
2017-Nov-12 02:31N 26°05' W 080°07'0 0.0
2017-Nov-12 02:00N 26°05' W 080°07'0 0.0
2017-Nov-12 01:30N 26°05' W 080°07'0 0.0
2017-Nov-12 01:01N 26°05' W 080°07'0 0.0
2017-Nov-12 00:31N 26°05' W 080°07'0 0.0
2017-Nov-12 00:01N 26°05' W 080°07'0 0.0
2017-Nov-11 23:30N 26°05' W 080°07'0 0.0
2017-Nov-11 23:00N 26°05' W 080°07'0 0.0
2017-Nov-11 22:31N 26°05' W 080°07'0 0.0
2017-Nov-11 22:01N 26°05' W 080°07'0 0.0
2017-Nov-11 21:31N 26°05' W 080°07'0 0.0
2017-Nov-11 21:00N 26°05' W 080°07'0 0.0
2017-Nov-11 20:30N 26°05' W 080°07'0 0.0
2017-Nov-11 20:00N 26°05' W 080°07'0 0.0
2017-Nov-11 19:30N 26°05' W 080°07'0 0.0
2017-Nov-11 19:00N 26°05' W 080°07'0 0.0
2017-Nov-11 18:30N 26°05' W 080°07'0 0.0
2017-Nov-11 18:00N 26°05' W 080°07'0 0.0
2017-Nov-11 17:30N 26°05' W 080°07'0 0.0
2017-Nov-11 17:00N 26°05' W 080°07'0 0.0
2017-Nov-11 16:30N 26°05' W 080°07'0 0.0
2017-Nov-11 16:00N 26°05' W 080°07'0 0.0
2017-Nov-11 15:30N 26°05' W 080°07'0 0.0
2017-Nov-11 15:00N 26°05' W 080°07'0 0.0
2017-Nov-11 14:30N 26°05' W 080°07'0 0.0
2017-Nov-11 14:00N 26°05' W 080°07'0 0.0
2017-Nov-11 13:31N 26°05' W 080°07'0 0.0
2017-Nov-11 13:01N 26°05' W 080°07'0 0.0
2017-Nov-11 12:31N 26°05' W 080°07'0 0.0
2017-Nov-11 12:00N 26°05' W 080°07'0 0.0
2017-Nov-11 11:31N 26°05' W 080°07'0 0.0
2017-Nov-11 11:01N 26°05' W 080°07'0 0.0
2017-Nov-11 10:31N 26°05' W 080°07'0 0.0
2017-Nov-11 10:01N 26°05' W 080°07'0 0.0
2017-Nov-11 09:31N 26°05' W 080°07'0 0.0
2017-Nov-11 09:00N 26°05' W 080°07'0 0.0
2017-Nov-11 08:31N 26°05' W 080°07'0 0.0
2017-Nov-11 08:01N 26°05' W 080°07'0 0.0
2017-Nov-11 07:31N 26°05' W 080°07'0 0.0
2017-Nov-11 07:00N 26°05' W 080°07'0 0.0
2017-Nov-11 06:30N 26°05' W 080°07'0 0.0
2017-Nov-11 06:00N 26°05' W 080°07'0 0.0
2017-Nov-11 05:30N 26°05' W 080°07'0 0.0
2017-Nov-11 05:00N 26°05' W 080°07'0 0.0
2017-Nov-11 04:30N 26°05' W 080°07'0 0.0
2017-Nov-11 04:00N 26°05' W 080°07'0 0.0
2017-Nov-11 03:30N 26°05' W 080°07'0 0.0
2017-Nov-11 03:00N 26°05' W 080°07'0 0.0
2017-Nov-11 02:30N 26°05' W 080°07'0 0.0
2017-Nov-11 02:00N 26°05' W 080°07'0 0.0
2017-Nov-11 01:30N 26°05' W 080°07'0 0.0
2017-Nov-11 01:00N 26°05' W 080°07'0 0.0
2017-Nov-11 00:30N 26°05' W 080°07'0 0.0
2017-Nov-11 00:00N 26°05' W 080°07'0 0.0
2017-Nov-10 23:31N 26°05' W 080°07'0 0.0
2017-Nov-10 23:00N 26°05' W 080°07'0 0.0
2017-Nov-10 22:31N 26°05' W 080°07'0 0.0
2017-Nov-10 22:01N 26°05' W 080°07'0 0.0
2017-Nov-10 21:31N 26°05' W 080°07'0 0.0
2017-Nov-10 21:00N 26°05' W 080°07'0 0.0
2017-Nov-10 20:31N 26°05' W 080°07'0 0.0
2017-Nov-10 20:01N 26°05' W 080°07'0 0.0
2017-Nov-10 19:31N 26°05' W 080°07'0 0.0
2017-Nov-10 19:01N 26°05' W 080°07'0 0.0
2017-Nov-10 18:30N 26°05' W 080°07'0 0.0
2017-Nov-10 18:00N 26°05' W 080°07'0 0.0
2017-Nov-10 17:31N 26°05' W 080°07'0 0.0
2017-Nov-10 17:01N 26°05' W 080°07'0 0.0
2017-Nov-10 16:31N 26°05' W 080°07'0 0.0
2017-Nov-10 16:00N 26°05' W 080°07'0 0.0
2017-Nov-10 15:30N 26°05' W 080°07'0 0.0
2017-Nov-10 15:00N 26°05' W 080°07'0 0.0
2017-Nov-10 14:30N 26°05' W 080°07'0 0.0
2017-Nov-10 14:01N 26°05' W 080°07'0 0.0
2017-Nov-10 13:31N 26°05' W 080°07'0 0.0
2017-Nov-10 13:01N 26°05' W 080°07'0 0.0
2017-Nov-10 12:31N 26°05' W 080°07'0 0.0
2017-Nov-10 12:01N 26°05' W 080°07'0 0.0
2017-Nov-10 11:30N 26°05' W 080°07'0 0.0
2017-Nov-10 11:00N 26°05' W 080°07'0 0.0
2017-Nov-10 10:31N 26°05' W 080°07'0 0.0
2017-Nov-10 10:00N 26°05' W 080°07'0 0.0
2017-Nov-10 09:31N 26°05' W 080°07'0 0.0
2017-Nov-10 09:01N 26°05' W 080°07'0 0.0
2017-Nov-10 08:30N 26°05' W 080°07'0 0.0
2017-Nov-10 08:00N 26°05' W 080°07'0 0.0
2017-Nov-10 07:31N 26°05' W 080°07'0 0.0
2017-Nov-10 07:00N 26°05' W 080°07'0 0.0
2017-Nov-10 06:31N 26°05' W 080°07'0 0.0
2017-Nov-10 06:00N 26°05' W 080°07'0 0.0
2017-Nov-10 05:31N 26°05' W 080°07'0 0.0
2017-Nov-10 05:01N 26°05' W 080°07'0 0.0
2017-Nov-10 04:31N 26°05' W 080°07'0 0.0
2017-Nov-10 04:01N 26°05' W 080°07'0 0.0
2017-Nov-10 03:31N 26°05' W 080°07'0 0.0
2017-Nov-10 03:00N 26°05' W 080°07'0 0.0
2017-Nov-10 02:31N 26°05' W 080°07'0 0.0
2017-Nov-10 02:01N 26°05' W 080°07'0 0.0
2017-Nov-10 01:30N 26°05' W 080°07'0 0.0
2017-Nov-10 01:01N 26°05' W 080°07'0 0.0
2017-Nov-10 00:31N 26°05' W 080°07'0 0.0
2017-Nov-10 00:01N 26°05' W 080°07'0 0.0
2017-Nov-09 23:30N 26°05' W 080°07'0 0.0
2017-Nov-09 23:01N 26°05' W 080°07'0 0.0
2017-Nov-09 22:30N 26°05' W 080°07'0 0.0
2017-Nov-09 22:01N 26°05' W 080°07'0 0.0
2017-Nov-09 21:30N 26°05' W 080°07'0 0.0
2017-Nov-09 21:01N 26°05' W 080°07'0 0.0
2017-Nov-09 20:30N 26°05' W 080°07'0 0.0
2017-Nov-09 20:01N 26°05' W 080°07'0 0.0
2017-Nov-09 19:30N 26°05' W 080°07'0 0.0
2017-Nov-09 19:00N 26°05' W 080°07'0 0.0
2017-Nov-09 18:30N 26°05' W 080°07'0 0.0
2017-Nov-09 18:01N 26°05' W 080°07'0 0.0
2017-Nov-09 17:31N 26°05' W 080°07'0 0.0
2017-Nov-09 17:01N 26°05' W 080°07'0 0.0
2017-Nov-09 16:31N 26°05' W 080°07'0 0.0
2017-Nov-09 16:01N 26°05' W 080°07'0 0.0
2017-Nov-09 15:31N 26°05' W 080°07'0 0.0
2017-Nov-09 15:00N 26°05' W 080°07'0 0.0
2017-Nov-09 14:31N 26°05' W 080°07'0 0.0
2017-Nov-09 14:01N 26°05' W 080°07'0 0.0
2017-Nov-09 13:31N 26°05' W 080°07'0 0.0
2017-Nov-09 13:01N 26°05' W 080°07'0 0.0
2017-Nov-09 12:31N 26°05' W 080°07'0 0.0
2017-Nov-09 12:01N 26°05' W 080°07'0 0.0
2017-Nov-09 11:31N 26°05' W 080°07'0 0.0
2017-Nov-09 11:00N 26°05' W 080°07'0 0.0
2017-Nov-09 10:31N 26°05' W 080°07'0 0.0
2017-Nov-09 10:00N 26°05' W 080°07'0 0.0
2017-Nov-09 09:30N 26°05' W 080°07'0 0.0
2017-Nov-09 09:01N 26°05' W 080°07'0 0.0
2017-Nov-09 08:31N 26°05' W 080°07'0 0.0
2017-Nov-09 08:00N 26°05' W 080°07'0 0.0
2017-Nov-09 07:31N 26°05' W 080°07'0 0.0
2017-Nov-09 07:00N 26°05' W 080°07'0 0.0
2017-Nov-09 06:30N 26°05' W 080°07'0 0.0
2017-Nov-09 06:01N 26°05' W 080°07'0 0.0
2017-Nov-09 05:31N 26°05' W 080°07'0 0.0
2017-Nov-09 05:01N 26°05' W 080°07'0 0.0
2017-Nov-09 04:31N 26°05' W 080°07'0 0.0
2017-Nov-09 04:00N 26°05' W 080°07'0 0.0
2017-Nov-09 03:31N 26°05' W 080°07'0 0.0
2017-Nov-09 03:01N 26°05' W 080°07'0 0.0
2017-Nov-09 02:31N 26°05' W 080°07'0 0.0
2017-Nov-09 02:01N 26°05' W 080°07'0 0.0
2017-Nov-09 01:30N 26°05' W 080°07'0 0.0
2017-Nov-09 01:01N 26°05' W 080°07'0 0.0
2017-Nov-09 00:31N 26°05' W 080°07'0 0.0
2017-Nov-09 00:01N 26°05' W 080°07'0 0.0
2017-Nov-08 23:30N 26°05' W 080°07'0 0.0
2017-Nov-08 23:00N 26°05' W 080°07'0 0.0
2017-Nov-08 22:31N 26°05' W 080°07'0 0.0
2017-Nov-08 22:00N 26°05' W 080°07'0 0.0
2017-Nov-08 21:31N 26°05' W 080°07'0 0.0
2017-Nov-08 21:01N 26°05' W 080°07'0 0.0
2017-Nov-08 20:31N 26°05' W 080°07'0 0.0
2017-Nov-08 20:00N 26°05' W 080°07'0 0.0
2017-Nov-08 19:31N 26°05' W 080°07'0 0.0
2017-Nov-08 19:01N 26°05' W 080°07'0 0.0
2017-Nov-08 18:30N 26°05' W 080°07'0 0.0
2017-Nov-08 18:01N 26°05' W 080°07'0 0.0
2017-Nov-08 17:31N 26°05' W 080°07'0 0.0
2017-Nov-08 17:00N 26°05' W 080°07'0 0.0
2017-Nov-08 16:31N 26°05' W 080°07'0 0.0
2017-Nov-08 16:01N 26°05' W 080°07'0 0.0
2017-Nov-08 15:30N 26°05' W 080°07'0 0.0
2017-Nov-08 15:00N 26°05' W 080°07'0 0.0
2017-Nov-08 14:31N 26°05' W 080°07'0 0.0
2017-Nov-08 14:01N 26°05' W 080°07'  

Dump ship's entire track history